createdAt,value
2022-11-08T00:02:20.518Z,94.56
2022-11-08T00:04:47.134Z,94.46
2022-11-08T00:07:32.082Z,94.53
2022-11-08T00:10:16.920Z,94.83
2022-11-08T00:13:03.003Z,95.12
2022-11-08T00:15:29.663Z,95.54
2022-11-08T00:17:56.687Z,95.35
2022-11-08T00:20:23.095Z,95.04
2022-11-08T00:22:49.591Z,94.67
2022-11-08T00:25:16.169Z,95.23
2022-11-08T00:27:42.627Z,94.98
2022-11-08T00:30:09.605Z,95.35
2022-11-08T00:32:35.977Z,95.06
2022-11-08T00:35:02.518Z,95.47
2022-11-08T00:37:28.966Z,95.77
2022-11-08T00:39:55.391Z,96.39
2022-11-08T00:42:21.838Z,95.86
2022-11-08T00:44:48.231Z,96.18
2022-11-08T00:47:14.648Z,96.02
2022-11-08T00:49:41.045Z,96.21
2022-11-08T00:52:07.468Z,95.88
2022-11-08T00:54:33.856Z,95.87
2022-11-08T00:57:00.537Z,96.43
2022-11-08T00:59:26.950Z,95.96
2022-11-08T01:01:53.477Z,96.06
2022-11-08T01:04:20.050Z,96.59
2022-11-08T01:06:47.844Z,95.96
2022-11-08T01:09:14.457Z,96.52
2022-11-08T01:11:45.314Z,96.12
2022-11-08T01:14:13.152Z,96.08
2022-11-08T01:16:40.306Z,96.91
2022-11-08T01:19:06.834Z,96.60
2022-11-08T01:21:33.376Z,96.95
2022-11-08T01:24:00.044Z,96.80
2022-11-08T01:26:28.103Z,96.82
2022-11-08T01:28:55.426Z,96.94
2022-11-08T01:31:24.012Z,97.46
2022-11-08T01:33:51.808Z,96.88
2022-11-08T01:36:22.226Z,96.25
2022-11-08T01:38:48.892Z,96.51
2022-11-08T01:41:17.345Z,96.11
2022-11-08T01:43:45.670Z,96.27
2022-11-08T01:46:18.115Z,96.03
2022-11-08T01:49:00.537Z,95.88
2022-11-08T01:51:32.805Z,96.64
2022-11-08T01:54:01.360Z,96.87
2022-11-08T01:56:27.844Z,97.14
2022-11-08T01:58:56.425Z,96.69
2022-11-08T02:01:22.940Z,97.13
2022-11-08T02:03:50.050Z,97.10
2022-11-08T02:06:16.841Z,97.11
2022-11-08T02:08:44.580Z,96.61
2022-11-08T02:11:22.097Z,96.35
2022-11-08T02:13:48.500Z,96.29
2022-11-08T02:16:16.591Z,96.19
2022-11-08T02:18:45.969Z,96.98
2022-11-08T02:21:30.360Z,96.60
2022-11-08T02:24:00.051Z,96.76
2022-11-08T02:26:32.759Z,97.05
2022-11-08T02:28:59.809Z,96.79
2022-11-08T02:31:26.262Z,97.57
2022-11-08T02:33:52.662Z,97.41
2022-11-08T02:36:22.869Z,97.47
2022-11-08T02:38:55.539Z,98.31
2022-11-08T02:41:21.942Z,98.34
2022-11-08T02:43:48.364Z,97.83
2022-11-08T02:46:14.962Z,97.65
2022-11-08T02:48:41.417Z,98.78
2022-11-08T02:51:07.920Z,98.61
2022-11-08T02:53:34.474Z,98.50
2022-11-08T02:56:00.871Z,98.53
2022-11-08T02:58:27.987Z,98.44
2022-11-08T03:00:54.611Z,97.88
2022-11-08T03:03:21.092Z,98.19
2022-11-08T03:05:47.608Z,97.42
2022-11-08T03:08:15.226Z,97.55
2022-11-08T03:10:42.007Z,98.32
2022-11-08T03:13:08.895Z,98.45
2022-11-08T03:15:35.320Z,98.27
2022-11-08T03:18:02.576Z,98.76
2022-11-08T03:20:32.715Z,98.64
2022-11-08T03:23:06.454Z,99.01
2022-11-08T03:25:33.399Z,99.21
2022-11-08T03:28:04.914Z,99.40
2022-11-08T03:30:31.704Z,98.66
2022-11-08T03:32:58.108Z,99.24
2022-11-08T03:35:24.512Z,99.19
2022-11-08T03:37:55.440Z,98.62
2022-11-08T03:40:22.767Z,97.78
2022-11-08T03:42:49.441Z,97.82
2022-11-08T03:45:16.915Z,97.50
2022-11-08T03:47:45.333Z,97.31
2022-11-08T03:50:13.490Z,97.33
2022-11-08T03:52:44.744Z,98.79
2022-11-08T03:55:12.151Z,98.82
2022-11-08T03:57:40.636Z,99.64
2022-11-08T04:00:10.078Z,100.00
2022-11-08T04:02:36.521Z,99.96
2022-11-08T04:05:03.145Z,100.00
2022-11-08T04:07:29.529Z,100.00
2022-11-08T04:09:56.564Z,100.00
2022-11-08T04:12:46.146Z,100.00
2022-11-08T04:15:14.857Z,100.00
2022-11-08T04:18:07.703Z,100.00
2022-11-08T04:20:56.079Z,100.00
2022-11-08T04:23:22.494Z,100.00
2022-11-08T04:25:55.059Z,99.81
2022-11-08T04:28:26.919Z,99.61
2022-11-08T04:30:57.705Z,99.95
2022-11-08T04:33:24.896Z,99.65
2022-11-08T04:35:52.111Z,99.15
2022-11-08T04:38:19.695Z,98.85
2022-11-08T04:40:46.792Z,98.92
2022-11-08T04:43:13.550Z,98.16
2022-11-08T04:45:40.192Z,98.20
2022-11-08T04:48:06.752Z,98.16
2022-11-08T04:50:34.149Z,98.18
2022-11-08T04:53:01.261Z,98.33
2022-11-08T04:55:27.904Z,99.60
2022-11-08T04:57:57.919Z,99.36
2022-11-08T05:00:24.729Z,99.42
2022-11-08T05:02:51.186Z,98.96
2022-11-08T05:05:17.746Z,98.70
2022-11-08T05:07:44.488Z,98.73
2022-11-08T05:10:11.006Z,98.86
2022-11-08T05:12:37.501Z,98.90
2022-11-08T05:15:04.209Z,98.81
2022-11-08T05:17:30.624Z,97.20
2022-11-08T05:20:15.584Z,96.71
2022-11-08T05:23:00.534Z,97.20
2022-11-08T05:25:26.951Z,96.96
2022-11-08T05:27:53.358Z,97.32
2022-11-08T05:30:19.834Z,97.38
2022-11-08T05:32:46.238Z,97.43
2022-11-08T05:35:12.675Z,97.43
2022-11-08T05:37:41.935Z,97.16
2022-11-08T05:40:09.190Z,96.55
2022-11-08T05:42:35.657Z,97.14
2022-11-08T05:45:06.580Z,96.98
2022-11-08T05:47:35.689Z,97.15
2022-11-08T05:50:02.163Z,96.83
2022-11-08T05:52:28.591Z,97.23
2022-11-08T05:54:54.998Z,96.49
2022-11-08T05:57:22.468Z,97.54
2022-11-08T05:59:49.007Z,97.25
2022-11-08T06:02:18.008Z,97.94
2022-11-08T06:04:47.698Z,97.89
2022-11-08T06:07:14.251Z,97.34
2022-11-08T06:09:40.703Z,97.59
2022-11-08T06:12:08.040Z,97.41
2022-11-08T06:14:34.727Z,98.00
2022-11-08T06:17:01.156Z,98.05
2022-11-08T06:19:27.565Z,97.99
2022-11-08T06:21:54.131Z,98.22
2022-11-08T06:24:23.751Z,98.91
2022-11-08T06:26:50.129Z,98.20
2022-11-08T06:29:16.567Z,98.98
2022-11-08T06:31:43.460Z,98.48
2022-11-08T06:34:10.297Z,98.37
2022-11-08T06:36:37.180Z,98.22
2022-11-08T06:39:03.910Z,98.41
2022-11-08T06:41:30.452Z,98.47
2022-11-08T06:43:56.925Z,98.68
2022-11-08T06:46:23.406Z,98.95
2022-11-08T06:48:50.192Z,99.20
2022-11-08T06:51:17.181Z,99.79
2022-11-08T06:53:43.780Z,99.53
2022-11-08T06:56:10.306Z,99.79
2022-11-08T06:58:37.335Z,100.00
2022-11-08T07:01:08.807Z,99.80
2022-11-08T07:03:35.594Z,100.00
2022-11-08T07:06:03.814Z,100.00
2022-11-08T07:08:31.370Z,99.57
2022-11-08T07:10:57.907Z,99.47
2022-11-08T07:13:24.366Z,99.89
2022-11-08T07:15:51.847Z,100.00
2022-11-08T07:18:20.015Z,100.00
2022-11-08T07:20:47.099Z,100.00
2022-11-08T07:23:13.987Z,100.00
2022-11-08T07:25:59.678Z,100.00
2022-11-08T07:28:26.140Z,100.00
2022-11-08T07:30:58.262Z,100.00
2022-11-08T07:33:24.775Z,100.00
2022-11-08T07:35:51.187Z,100.00
2022-11-08T07:38:17.581Z,100.00
2022-11-08T07:40:44.813Z,100.00
2022-11-08T07:43:12.900Z,100.00
2022-11-08T07:45:40.582Z,100.00
2022-11-08T07:48:12.902Z,100.00
2022-11-08T07:50:41.109Z,99.57
2022-11-08T07:53:07.671Z,99.74
2022-11-08T07:55:37.379Z,99.33
2022-11-08T07:58:04.375Z,98.78
2022-11-08T08:00:33.106Z,98.48
2022-11-08T08:03:00.889Z,97.75
2022-11-08T08:05:29.473Z,97.45
2022-11-08T08:08:00.267Z,97.30
2022-11-08T08:10:28.052Z,97.77
2022-11-08T08:12:55.464Z,97.54
2022-11-08T08:15:22.536Z,96.32
2022-11-08T08:17:49.107Z,94.94
2022-11-08T08:20:15.798Z,94.27
2022-11-08T08:22:46.391Z,91.62
2022-11-08T08:25:13.251Z,92.09
2022-11-08T08:27:40.010Z,92.03
2022-11-08T08:30:07.075Z,90.25
2022-11-08T08:32:34.282Z,90.53
2022-11-08T08:35:00.675Z,90.99
2022-11-08T08:37:27.049Z,90.04
2022-11-08T08:39:53.458Z,89.96
2022-11-08T08:42:19.858Z,89.50
2022-11-08T08:44:51.435Z,88.14
2022-11-08T08:47:20.856Z,89.06
2022-11-08T08:49:47.249Z,89.24
2022-11-08T08:52:18.956Z,89.49
2022-11-08T08:54:45.889Z,89.44
2022-11-08T08:57:12.496Z,89.28
2022-11-08T09:02:25.330Z,87.98
2022-11-08T09:04:51.721Z,87.78
2022-11-08T09:07:18.182Z,87.04
2022-11-08T09:09:44.651Z,84.97
2022-11-08T09:12:14.386Z,83.60
2022-11-08T09:14:41.130Z,82.08
2022-11-08T09:17:09.653Z,80.31
2022-11-08T09:19:36.087Z,78.92
2022-11-08T09:22:02.646Z,78.87
2022-11-08T09:24:29.408Z,79.43
2022-11-08T09:26:56.941Z,78.30
2022-11-08T09:29:23.391Z,77.60
2022-11-08T09:31:49.831Z,77.24
2022-11-08T09:34:21.708Z,77.33
2022-11-08T09:36:48.568Z,76.05
2022-11-08T09:39:15.372Z,76.61
2022-11-08T09:42:16.732Z,77.26
2022-11-08T09:44:52.134Z,76.42
2022-11-08T09:47:28.970Z,75.47
2022-11-08T09:50:18.573Z,75.11
2022-11-08T09:52:55.128Z,74.04
2022-11-08T09:55:46.637Z,75.32
2022-11-08T09:58:22.687Z,73.88
2022-11-08T10:00:53.229Z,73.60
2022-11-08T10:03:23.891Z,73.38
2022-11-08T10:06:02.214Z,72.93
2022-11-08T10:08:48.822Z,75.18
2022-11-08T10:11:37.754Z,74.39
2022-11-08T10:14:42.873Z,70.58
2022-11-08T10:17:52.723Z,70.29
2022-11-08T10:20:37.866Z,69.38
2022-11-08T10:23:21.637Z,69.22
2022-11-08T10:25:54.084Z,70.16
2022-11-08T10:28:40.947Z,68.46
2022-11-08T10:31:10.028Z,65.76
2022-11-08T10:33:56.286Z,66.68
2022-11-08T10:36:25.611Z,68.23
2022-11-08T10:39:04.389Z,67.31
2022-11-08T10:41:38.799Z,65.68
2022-11-08T10:44:12.238Z,67.93
2022-11-08T10:47:05.544Z,67.93
2022-11-08T10:49:36.459Z,68.31
2022-11-08T10:52:12.143Z,67.11
2022-11-08T10:54:50.410Z,67.24
2022-11-08T10:57:25.539Z,67.25
2022-11-08T11:00:31.459Z,66.82
2022-11-08T11:03:23.207Z,68.88
2022-11-08T11:06:07.307Z,68.25
2022-11-08T11:08:33.792Z,69.14
2022-11-08T11:11:34.857Z,69.60
2022-11-08T11:14:16.295Z,69.74
2022-11-08T11:16:55.689Z,66.75
2022-11-08T11:19:23.579Z,65.87
2022-11-08T11:21:56.467Z,66.54
2022-11-08T11:24:24.255Z,64.77
2022-11-08T11:26:56.730Z,64.95
2022-11-08T11:29:31.792Z,64.99
2022-11-08T11:32:25.199Z,64.28
2022-11-08T11:34:58.222Z,62.05
2022-11-08T11:37:35.165Z,63.47
2022-11-08T11:40:20.467Z,62.22
2022-11-08T11:43:16.335Z,60.85
2022-11-08T11:45:47.390Z,59.47
2022-11-08T11:48:21.910Z,59.06
2022-11-08T11:50:49.952Z,58.46
2022-11-08T11:53:22.680Z,58.87
2022-11-08T11:56:17.553Z,56.84
2022-11-08T11:59:02.206Z,54.31
2022-11-08T12:01:37.306Z,53.83
2022-11-08T12:04:25.615Z,52.43
2022-11-08T12:07:10.479Z,53.34
2022-11-08T12:10:16.837Z,51.03
2022-11-08T12:13:21.870Z,52.22
2022-11-08T12:16:06.631Z,52.34
2022-11-08T12:18:50.416Z,49.89
2022-11-08T12:21:34.554Z,50.90
2022-11-08T12:24:27.462Z,48.54
2022-11-08T12:27:17.321Z,49.71
2022-11-08T12:30:02.104Z,48.48
2022-11-08T12:33:04.226Z,49.01
2022-11-08T12:35:43.203Z,49.25
2022-11-08T12:38:21.513Z,43.50
2022-11-08T12:41:05.126Z,44.53
2022-11-08T12:43:41.114Z,44.37
2022-11-08T12:46:14.877Z,40.12
2022-11-08T12:48:50.424Z,41.54
2022-11-08T12:51:22.894Z,41.97
2022-11-08T12:53:58.652Z,40.93
2022-11-08T12:56:41.274Z,40.96
2022-11-08T12:59:32.503Z,38.88
2022-11-08T13:02:02.080Z,40.53
2022-11-08T13:05:10.524Z,38.95
2022-11-08T13:08:04.296Z,37.19
2022-11-08T13:10:56.701Z,38.74
2022-11-08T13:13:33.262Z,39.14
2022-11-08T13:16:15.389Z,38.26
2022-11-08T13:18:59.529Z,38.79
2022-11-08T13:21:39.148Z,38.93
2022-11-08T13:24:14.151Z,40.73
2022-11-08T13:27:22.236Z,39.30
2022-11-08T13:29:49.038Z,40.69
2022-11-08T13:32:33.138Z,39.12
2022-11-08T13:35:25.517Z,39.11
2022-11-08T13:38:29.541Z,37.79
2022-11-08T13:41:25.410Z,37.46
2022-11-08T13:43:54.681Z,36.14
2022-11-08T13:46:30.285Z,38.36
2022-11-08T13:49:26.150Z,37.73
2022-11-08T13:52:32.006Z,38.44
2022-11-08T13:54:58.519Z,36.83
2022-11-08T13:58:02.877Z,38.18
2022-11-08T14:00:44.103Z,37.13
2022-11-08T14:03:37.761Z,40.33
2022-11-08T14:06:07.154Z,37.63
2022-11-08T14:08:55.888Z,36.27
2022-11-08T14:11:52.274Z,36.64
2022-11-08T14:14:42.183Z,38.58
2022-11-08T14:17:28.024Z,38.08
2022-11-08T14:19:59.049Z,37.73
2022-11-08T14:22:28.234Z,39.05
2022-11-08T14:25:07.135Z,39.84
2022-11-08T14:27:39.751Z,39.31
2022-11-08T14:30:15.366Z,41.14
2022-11-08T14:32:41.899Z,40.48
2022-11-08T14:35:28.305Z,41.30
2022-11-08T14:37:54.851Z,42.73
2022-11-08T14:40:30.480Z,44.97
2022-11-08T14:43:03.841Z,47.01
2022-11-08T14:45:30.462Z,47.93
2022-11-08T14:48:04.823Z,49.14
2022-11-08T14:50:35.212Z,48.69
2022-11-08T14:53:20.673Z,50.59
2022-11-08T14:55:47.660Z,50.51
2022-11-08T14:58:15.216Z,51.23
2022-11-08T15:00:47.070Z,50.33
2022-11-08T15:03:19.088Z,50.33
2022-11-08T15:05:57.643Z,54.89
2022-11-08T15:08:35.744Z,53.55
2022-11-08T15:11:28.725Z,54.55
2022-11-08T15:14:06.799Z,56.35
2022-11-08T15:16:50.037Z,56.45
2022-11-08T15:19:46.147Z,55.54
2022-11-08T15:22:22.166Z,55.09
2022-11-08T15:25:01.853Z,57.36
2022-11-08T15:27:29.141Z,56.96
2022-11-08T15:30:09.141Z,54.66
2022-11-08T15:32:38.761Z,54.95
2022-11-08T15:35:07.644Z,55.65
2022-11-08T15:37:39.489Z,56.01
2022-11-08T15:40:16.278Z,56.37
2022-11-08T15:42:45.137Z,57.47
2022-11-08T15:45:14.263Z,56.76
2022-11-08T15:47:43.895Z,56.33
2022-11-08T15:50:15.087Z,58.62
2022-11-08T15:52:43.362Z,58.19
2022-11-08T15:55:29.626Z,58.24
2022-11-08T15:57:57.862Z,59.63
2022-11-08T16:00:31.649Z,61.04
2022-11-08T16:02:58.666Z,60.75
2022-11-08T16:05:27.548Z,59.83
2022-11-08T16:07:55.664Z,62.27
2022-11-08T16:10:30.025Z,62.00
2022-11-08T16:13:05.688Z,61.74
2022-11-08T16:15:37.649Z,61.62
2022-11-08T16:18:04.209Z,60.56
2022-11-08T16:20:38.273Z,61.65
2022-11-08T16:23:07.329Z,63.46
2022-11-08T16:25:44.048Z,63.25
2022-11-08T16:28:24.178Z,63.41
2022-11-08T16:31:01.289Z,66.84
2022-11-08T16:33:35.875Z,65.15
2022-11-08T16:36:17.892Z,62.32
2022-11-08T16:38:50.021Z,63.71
2022-11-08T16:41:16.492Z,63.98
2022-11-08T16:43:43.012Z,65.62
2022-11-08T16:46:09.642Z,66.30
2022-11-08T16:48:38.916Z,67.72
2022-11-08T16:51:13.219Z,68.67
2022-11-08T16:53:52.496Z,64.33
2022-11-08T16:56:19.504Z,64.13
2022-11-08T16:58:45.980Z,66.61
2022-11-08T17:01:30.627Z,64.73
2022-11-08T17:04:00.234Z,65.48
2022-11-08T17:06:26.670Z,64.54
2022-11-08T17:08:53.187Z,64.81
2022-11-08T17:11:22.608Z,64.98
2022-11-08T17:13:49.680Z,66.73
2022-11-08T17:16:20.143Z,63.83
2022-11-08T17:18:52.316Z,64.02
2022-11-08T17:24:07.129Z,63.92
2022-11-08T17:26:34.743Z,63.61
2022-11-08T17:29:02.326Z,64.34
2022-11-08T17:31:29.783Z,63.97
2022-11-08T17:33:56.247Z,63.24
2022-11-08T17:36:26.750Z,64.52
2022-11-08T17:39:03.783Z,66.80
2022-11-08T17:41:37.435Z,67.59
2022-11-08T17:44:08.040Z,66.19
2022-11-08T17:46:34.668Z,67.28
2022-11-08T17:49:04.344Z,68.51
2022-11-08T17:51:36.859Z,69.01
2022-11-08T17:54:03.595Z,69.23
2022-11-08T17:56:30.868Z,69.29
2022-11-08T17:58:57.353Z,69.36
2022-11-08T18:01:23.939Z,69.24
2022-11-08T18:03:51.073Z,68.56
2022-11-08T18:06:17.793Z,69.10
2022-11-08T18:08:44.251Z,70.71
2022-11-08T18:11:10.874Z,71.34
2022-11-08T18:13:37.504Z,72.24
2022-11-08T18:16:13.243Z,73.30
2022-11-08T18:18:40.654Z,73.89
2022-11-08T18:21:10.609Z,73.71
2022-11-08T18:23:40.919Z,73.66
2022-11-08T18:26:07.859Z,73.54
2022-11-08T18:28:34.353Z,74.22
2022-11-08T18:31:15.029Z,74.50
2022-11-08T18:33:42.585Z,73.53
2022-11-08T18:36:12.994Z,73.51
2022-11-08T18:38:40.562Z,74.54
2022-11-08T18:41:08.029Z,75.18
2022-11-08T18:43:35.460Z,76.67
2022-11-08T18:46:06.804Z,75.51
2022-11-08T18:48:37.618Z,75.65
2022-11-08T18:51:08.873Z,76.63
2022-11-08T18:53:35.442Z,78.39
2022-11-08T18:56:02.131Z,77.80
2022-11-08T18:58:28.945Z,77.43
2022-11-08T19:00:57.460Z,79.52
2022-11-08T19:03:24.777Z,79.27
2022-11-08T19:05:51.298Z,79.75
2022-11-08T19:08:20.102Z,80.93
2022-11-08T19:10:54.263Z,82.87
2022-11-08T19:13:25.066Z,81.48
2022-11-08T19:16:07.147Z,81.75
2022-11-08T19:18:34.832Z,81.89
2022-11-08T19:21:11.979Z,81.30
2022-11-08T19:23:39.292Z,81.73
2022-11-08T19:26:08.431Z,82.08
2022-11-08T19:28:39.423Z,82.87
2022-11-08T19:31:06.303Z,82.31
2022-11-08T19:33:33.771Z,81.49
2022-11-08T19:36:06.592Z,81.85
2022-11-08T19:38:34.269Z,81.31
2022-11-08T19:41:02.434Z,83.66
2022-11-08T19:43:29.872Z,84.46
2022-11-08T19:46:02.295Z,84.91
2022-11-08T19:48:30.616Z,84.50
2022-11-08T19:50:57.291Z,85.30
2022-11-08T19:53:23.726Z,84.61
2022-11-08T19:56:00.581Z,84.97
2022-11-08T19:58:27.258Z,85.02
2022-11-08T20:00:53.859Z,84.69
2022-11-08T20:03:20.622Z,85.48
2022-11-08T20:05:51.747Z,86.28
2022-11-08T20:08:19.906Z,86.31
2022-11-08T20:10:47.131Z,86.63
2022-11-08T20:13:13.635Z,86.79
2022-11-08T20:15:40.106Z,84.99
2022-11-08T20:18:06.709Z,85.81
2022-11-08T20:20:33.291Z,85.62
2022-11-08T20:23:06.205Z,85.54
2022-11-08T20:25:36.561Z,86.75
2022-11-08T20:28:03.261Z,87.89
2022-11-08T20:30:30.230Z,87.61
2022-11-08T20:32:57.105Z,87.52
2022-11-08T20:35:23.742Z,87.55
2022-11-08T20:37:50.354Z,88.03
2022-11-08T20:40:17.305Z,87.58
2022-11-08T20:42:50.255Z,88.03
2022-11-08T20:45:17.795Z,87.72
2022-11-08T20:47:44.505Z,88.03
2022-11-08T20:50:11.086Z,87.08
2022-11-08T20:52:39.536Z,86.63
2022-11-08T20:55:06.328Z,87.08
2022-11-08T20:57:32.766Z,88.06
2022-11-08T21:00:11.689Z,87.97
2022-11-08T21:02:39.443Z,88.44
2022-11-08T21:05:06.275Z,88.00
2022-11-08T21:10:41.574Z,89.17
2022-11-08T21:13:09.669Z,88.87
2022-11-08T21:15:36.150Z,88.73
2022-11-08T21:18:03.617Z,88.25
2022-11-08T21:20:30.017Z,88.35
2022-11-08T21:22:56.459Z,88.09
2022-11-08T21:25:23.918Z,88.90
2022-11-08T21:27:50.319Z,88.93
2022-11-08T21:30:16.846Z,88.42
2022-11-08T21:32:43.269Z,88.63
2022-11-08T21:35:09.826Z,89.37
2022-11-08T21:37:36.334Z,89.84
2022-11-08T21:40:02.898Z,90.32
2022-11-08T21:42:36.595Z,89.94
2022-11-08T21:45:06.102Z,89.81
2022-11-08T21:47:32.504Z,90.59
2022-11-08T21:49:58.928Z,89.96
2022-11-08T21:52:25.385Z,90.73
2022-11-08T21:54:51.814Z,90.64
2022-11-08T21:57:23.308Z,90.54
2022-11-08T21:59:49.713Z,91.15
2022-11-08T22:02:16.095Z,90.52
2022-11-08T22:04:42.527Z,91.21
2022-11-08T22:07:22.274Z,90.34
2022-11-08T22:09:48.827Z,90.83
2022-11-08T22:12:15.332Z,90.45
2022-11-08T22:14:41.732Z,89.82
2022-11-08T22:17:08.128Z,90.68
2022-11-08T22:19:34.563Z,90.81
2022-11-08T22:22:01.011Z,91.16
2022-11-08T22:24:27.406Z,90.52
2022-11-08T22:26:53.828Z,90.88
2022-11-08T22:29:20.307Z,91.21
2022-11-08T22:31:47.124Z,91.23
2022-11-08T22:34:13.858Z,91.06
2022-11-08T22:36:45.041Z,91.40
2022-11-08T22:39:15.549Z,91.06
2022-11-08T22:41:43.395Z,91.27
2022-11-08T22:44:12.254Z,91.27
2022-11-08T22:46:40.817Z,90.56
2022-11-08T22:49:07.297Z,90.81
2022-11-08T22:51:33.857Z,90.86
2022-11-08T22:54:00.341Z,91.13
2022-11-08T22:56:26.744Z,90.33
2022-11-08T22:58:53.165Z,90.82
2022-11-08T23:01:20.843Z,91.54
2022-11-08T23:03:48.157Z,90.06
2022-11-08T23:06:15.470Z,89.06
2022-11-08T23:08:42.505Z,90.05
2022-11-08T23:11:28.117Z,90.11
2022-11-08T23:14:13.554Z,90.67
2022-11-08T23:16:42.637Z,90.45
2022-11-08T23:19:31.346Z,91.62
2022-11-08T23:22:16.651Z,91.95
2022-11-08T23:24:43.375Z,91.67
2022-11-08T23:27:30.161Z,91.77
2022-11-08T23:30:15.132Z,90.74
2022-11-08T23:32:49.450Z,91.31
2022-11-08T23:35:17.288Z,91.27
2022-11-08T23:37:44.020Z,91.82
2022-11-08T23:40:30.481Z,92.08
2022-11-08T23:43:24.529Z,91.29
2022-11-08T23:45:53.050Z,92.13
2022-11-08T23:48:26.923Z,91.90
2022-11-08T23:50:54.945Z,92.10
2022-11-08T23:53:25.159Z,93.26
2022-11-08T23:55:52.653Z,93.08
2022-11-08T23:58:19.112Z,93.36
